sensor_id;sensor_type;location;lat;lon;timestamp;temperature;humidity
14079;DHT22;7115;50.150;8.568;2023-08-30T00:01:44;15.60;99.90
14079;DHT22;7115;50.150;8.568;2023-08-30T00:04:12;15.60;99.90
14079;DHT22;7115;50.150;8.568;2023-08-30T00:06:39;15.50;99.90
14079;DHT22;7115;50.150;8.568;2023-08-30T00:09:06;15.50;99.90
14079;DHT22;7115;50.150;8.568;2023-08-30T00:11:33;15.60;99.90
14079;DHT22;7115;50.150;8.568;2023-08-30T00:14:03;15.50;99.90
14079;DHT22;7115;50.150;8.568;2023-08-30T00:16:32;15.50;99.90
14079;DHT22;7115;50.150;8.568;2023-08-30T00:18:59;15.60;99.90
14079;DHT22;7115;50.150;8.568;2023-08-30T00:21:28;15.60;99.90
14079;DHT22;7115;50.150;8.568;2023-08-30T00:23:55;15.60;99.90
14079;DHT22;7115;50.150;8.568;2023-08-30T00:26:21;15.60;99.90
14079;DHT22;7115;50.150;8.568;2023-08-30T00:28:48;15.60;99.90
14079;DHT22;7115;50.150;8.568;2023-08-30T00:31:15;15.50;99.90
14079;DHT22;7115;50.150;8.568;2023-08-30T00:33:42;15.60;99.90
14079;DHT22;7115;50.150;8.568;2023-08-30T00:36:09;15.60;99.90
14079;DHT22;7115;50.150;8.568;2023-08-30T00:38:37;15.60;99.90
14079;DHT22;7115;50.150;8.568;2023-08-30T00:41:04;15.60;99.90
14079;DHT22;7115;50.150;8.568;2023-08-30T00:43:31;15.60;99.90
14079;DHT22;7115;50.150;8.568;2023-08-30T00:45:58;15.60;99.90
14079;DHT22;7115;50.150;8.568;2023-08-30T00:48:25;15.60;99.90
14079;DHT22;7115;50.150;8.568;2023-08-30T00:50:52;15.60;99.90
14079;DHT22;7115;50.150;8.568;2023-08-30T00:53:19;15.60;99.90
14079;DHT22;7115;50.150;8.568;2023-08-30T00:55:47;15.60;99.90
14079;DHT22;7115;50.150;8.568;2023-08-30T00:58:14;15.60;99.90
14079;DHT22;7115;50.150;8.568;2023-08-30T01:00:41;15.60;99.90
14079;DHT22;7115;50.150;8.568;2023-08-30T01:03:08;15.70;99.90
14079;DHT22;7115;50.150;8.568;2023-08-30T01:05:35;15.60;99.90
14079;DHT22;7115;50.150;8.568;2023-08-30T01:08:03;15.60;99.90
14079;DHT22;7115;50.150;8.568;2023-08-30T01:10:40;15.60;99.90
14079;DHT22;7115;50.150;8.568;2023-08-30T01:13:12;15.70;99.90
14079;DHT22;7115;50.150;8.568;2023-08-30T01:15:42;15.70;99.90
14079;DHT22;7115;50.150;8.568;2023-08-30T01:18:10;15.70;99.90
14079;DHT22;7115;50.150;8.568;2023-08-30T01:20:41;15.70;99.90
14079;DHT22;7115;50.150;8.568;2023-08-30T01:23:16;15.70;99.90
14079;DHT22;7115;50.150;8.568;2023-08-30T01:25:52;15.70;99.90
14079;DHT22;7115;50.150;8.568;2023-08-30T01:28:24;15.70;99.90
14079;DHT22;7115;50.150;8.568;2023-08-30T01:30:52;15.70;99.90
14079;DHT22;7115;50.150;8.568;2023-08-30T01:33:24;15.70;99.90
14079;DHT22;7115;50.150;8.568;2023-08-30T01:35:54;15.70;99.90
14079;DHT22;7115;50.150;8.568;2023-08-30T01:38:23;15.70;99.90
14079;DHT22;7115;50.150;8.568;2023-08-30T01:40:52;15.70;99.90
14079;DHT22;7115;50.150;8.568;2023-08-30T01:43:22;15.70;99.90
14079;DHT22;7115;50.150;8.568;2023-08-30T01:45:49;15.70;99.90
14079;DHT22;7115;50.150;8.568;2023-08-30T01:48:17;15.60;99.90
14079;DHT22;7115;50.150;8.568;2023-08-30T01:50:45;15.60;99.90
14079;DHT22;7115;50.150;8.568;2023-08-30T01:53:13;15.60;99.90
14079;DHT22;7115;50.150;8.568;2023-08-30T01:55:41;15.60;99.90
14079;DHT22;7115;50.150;8.568;2023-08-30T01:58:08;15.60;99.90
14079;DHT22;7115;50.150;8.568;2023-08-30T02:00:38;15.60;99.90
14079;DHT22;7115;50.150;8.568;2023-08-30T02:03:08;15.50;99.90
14079;DHT22;7115;50.150;8.568;2023-08-30T02:05:43;15.60;99.90
14079;DHT22;7115;50.150;8.568;2023-08-30T02:08:16;15.60;99.90
14079;DHT22;7115;50.150;8.568;2023-08-30T02:10:50;15.60;99.90
14079;DHT22;7115;50.150;8.568;2023-08-30T02:13:25;15.60;99.90
14079;DHT22;7115;50.150;8.568;2023-08-30T02:15:55;15.60;99.90
14079;DHT22;7115;50.150;8.568;2023-08-30T02:18:24;15.60;99.90
14079;DHT22;7115;50.150;8.568;2023-08-30T02:20:51;15.60;99.90
14079;DHT22;7115;50.150;8.568;2023-08-30T02:23:19;15.60;99.90
14079;DHT22;7115;50.150;8.568;2023-08-30T02:25:46;15.60;99.90
14079;DHT22;7115;50.150;8.568;2023-08-30T02:28:13;15.60;99.90
14079;DHT22;7115;50.150;8.568;2023-08-30T02:30:40;15.60;99.90
14079;DHT22;7115;50.150;8.568;2023-08-30T02:33:08;15.60;99.90
14079;DHT22;7115;50.150;8.568;2023-08-30T02:35:35;15.60;99.90
14079;DHT22;7115;50.150;8.568;2023-08-30T02:38:01;15.60;99.90
14079;DHT22;7115;50.150;8.568;2023-08-30T02:40:32;15.60;99.90
14079;DHT22;7115;50.150;8.568;2023-08-30T02:42:59;15.70;99.90
14079;DHT22;7115;50.150;8.568;2023-08-30T02:45:25;15.70;99.90
14079;DHT22;7115;50.150;8.568;2023-08-30T02:47:55;15.70;99.90
14079;DHT22;7115;50.150;8.568;2023-08-30T02:50:24;15.70;99.90
14079;DHT22;7115;50.150;8.568;2023-08-30T02:52:51;15.70;99.90
14079;DHT22;7115;50.150;8.568;2023-08-30T02:55:19;15.70;99.90
14079;DHT22;7115;50.150;8.568;2023-08-30T02:57:46;15.70;99.90
14079;DHT22;7115;50.150;8.568;2023-08-30T03:00:14;15.80;99.90
14079;DHT22;7115;50.150;8.568;2023-08-30T03:02:41;15.80;99.90
14079;DHT22;7115;50.150;8.568;2023-08-30T03:05:08;15.80;99.90
14079;DHT22;7115;50.150;8.568;2023-08-30T03:07:36;15.70;99.90
14079;DHT22;7115;50.150;8.568;2023-08-30T03:10:04;15.70;99.90
14079;DHT22;7115;50.150;8.568;2023-08-30T03:12:31;15.70;99.90
14079;DHT22;7115;50.150;8.568;2023-08-30T03:14:58;15.80;99.90
14079;DHT22;7115;50.150;8.568;2023-08-30T03:17:25;15.80;99.90
14079;DHT22;7115;50.150;8.568;2023-08-30T03:19:52;15.80;99.90
14079;DHT22;7115;50.150;8.568;2023-08-30T03:22:19;15.80;99.90
14079;DHT22;7115;50.150;8.568;2023-08-30T03:24:48;15.80;99.90
14079;DHT22;7115;50.150;8.568;2023-08-30T03:27:16;15.80;99.90
14079;DHT22;7115;50.150;8.568;2023-08-30T03:29:42;15.80;99.90
14079;DHT22;7115;50.150;8.568;2023-08-30T03:32:09;15.80;99.90
14079;DHT22;7115;50.150;8.568;2023-08-30T03:34:37;15.70;99.90
14079;DHT22;7115;50.150;8.568;2023-08-30T03:37:04;15.70;99.90
14079;DHT22;7115;50.150;8.568;2023-08-30T03:39:30;15.70;99.90
14079;DHT22;7115;50.150;8.568;2023-08-30T03:41:59;15.70;99.90
14079;DHT22;7115;50.150;8.568;2023-08-30T03:44:26;15.70;99.90
14079;DHT22;7115;50.150;8.568;2023-08-30T03:46:52;15.70;99.90
14079;DHT22;7115;50.150;8.568;2023-08-30T03:49:20;15.60;99.90
14079;DHT22;7115;50.150;8.568;2023-08-30T03:51:47;15.60;99.90
14079;DHT22;7115;50.150;8.568;2023-08-30T03:54:14;15.60;99.90
14079;DHT22;7115;50.150;8.568;2023-08-30T03:56:43;15.60;99.90
14079;DHT22;7115;50.150;8.568;2023-08-30T03:59:11;15.60;99.90
14079;DHT22;7115;50.150;8.568;2023-08-30T04:01:38;15.60;99.90
14079;DHT22;7115;50.150;8.568;2023-08-30T04:04:05;15.60;99.90
14079;DHT22;7115;50.150;8.568;2023-08-30T04:06:32;15.60;99.90
14079;DHT22;7115;50.150;8.568;2023-08-30T04:08:59;15.60;99.90
14079;DHT22;7115;50.150;8.568;2023-08-30T04:11:26;15.60;99.90
14079;DHT22;7115;50.150;8.568;2023-08-30T04:13:53;15.60;99.90
14079;DHT22;7115;50.150;8.568;2023-08-30T04:16:21;15.60;99.90
14079;DHT22;7115;50.150;8.568;2023-08-30T04:18:48;15.70;99.90
14079;DHT22;7115;50.150;8.568;2023-08-30T04:21:15;15.60;99.90
14079;DHT22;7115;50.150;8.568;2023-08-30T04:23:41;15.60;99.90
14079;DHT22;7115;50.150;8.568;2023-08-30T04:26:08;15.70;99.90
14079;DHT22;7115;50.150;8.568;2023-08-30T04:28:35;15.60;99.90
14079;DHT22;7115;50.150;8.568;2023-08-30T04:31:02;15.60;99.90
14079;DHT22;7115;50.150;8.568;2023-08-30T04:33:30;15.70;99.90
14079;DHT22;7115;50.150;8.568;2023-08-30T04:35:57;15.70;99.90
14079;DHT22;7115;50.150;8.568;2023-08-30T04:38:27;15.70;99.90
14079;DHT22;7115;50.150;8.568;2023-08-30T04:40:57;15.70;99.90
14079;DHT22;7115;50.150;8.568;2023-08-30T04:43:25;15.60;99.90
14079;DHT22;7115;50.150;8.568;2023-08-30T04:45:52;15.60;99.90
14079;DHT22;7115;50.150;8.568;2023-08-30T04:48:18;15.70;99.90
14079;DHT22;7115;50.150;8.568;2023-08-30T04:50:47;15.60;99.90
14079;DHT22;7115;50.150;8.568;2023-08-30T04:53:14;15.60;99.90
14079;DHT22;7115;50.150;8.568;2023-08-30T04:55:40;15.60;99.90
14079;DHT22;7115;50.150;8.568;2023-08-30T04:58:07;15.60;99.90
14079;DHT22;7115;50.150;8.568;2023-08-30T05:00:35;15.60;99.90
14079;DHT22;7115;50.150;8.568;2023-08-30T05:03:02;15.60;99.90
14079;DHT22;7115;50.150;8.568;2023-08-30T05:05:29;15.60;99.90
14079;DHT22;7115;50.150;8.568;2023-08-30T05:07:58;15.60;99.90
14079;DHT22;7115;50.150;8.568;2023-08-30T05:10:25;15.60;99.90
14079;DHT22;7115;50.150;8.568;2023-08-30T05:12:51;15.60;99.90
14079;DHT22;7115;50.150;8.568;2023-08-30T05:15:18;15.60;99.90
14079;DHT22;7115;50.150;8.568;2023-08-30T05:17:46;15.60;99.90
14079;DHT22;7115;50.150;8.568;2023-08-30T05:20:13;15.60;99.90
14079;DHT22;7115;50.150;8.568;2023-08-30T05:22:40;15.60;99.90
14079;DHT22;7115;50.150;8.568;2023-08-30T05:25:08;15.60;99.90
14079;DHT22;7115;50.150;8.568;2023-08-30T05:27:35;15.70;99.90
14079;DHT22;7115;50.150;8.568;2023-08-30T05:30:03;15.70;99.90
14079;DHT22;7115;50.150;8.568;2023-08-30T05:32:30;15.70;99.90
14079;DHT22;7115;50.150;8.568;2023-08-30T05:34:59;15.70;99.90
14079;DHT22;7115;50.150;8.568;2023-08-30T05:37:25;15.60;99.90
14079;DHT22;7115;50.150;8.568;2023-08-30T05:39:52;15.70;99.90
14079;DHT22;7115;50.150;8.568;2023-08-30T05:42:20;15.70;99.90
14079;DHT22;7115;50.150;8.568;2023-08-30T05:44:47;15.70;99.90
14079;DHT22;7115;50.150;8.568;2023-08-30T05:47:14;15.70;99.90
14079;DHT22;7115;50.150;8.568;2023-08-30T05:49:43;15.80;99.90
14079;DHT22;7115;50.150;8.568;2023-08-30T05:52:10;15.80;99.90
14079;DHT22;7115;50.150;8.568;2023-08-30T05:54:37;15.80;99.90
14079;DHT22;7115;50.150;8.568;2023-08-30T05:57:04;15.90;99.90
14079;DHT22;7115;50.150;8.568;2023-08-30T05:59:32;15.90;99.90
14079;DHT22;7115;50.150;8.568;2023-08-30T06:01:59;15.90;99.90
14079;DHT22;7115;50.150;8.568;2023-08-30T06:04:26;16.00;99.90
14079;DHT22;7115;50.150;8.568;2023-08-30T06:06:53;16.10;99.90
14079;DHT22;7115;50.150;8.568;2023-08-30T06:09:20;16.10;99.90
14079;DHT22;7115;50.150;8.568;2023-08-30T06:11:47;16.10;99.90
14079;DHT22;7115;50.150;8.568;2023-08-30T06:14:13;16.20;99.90
14079;DHT22;7115;50.150;8.568;2023-08-30T06:16:42;16.20;99.90
14079;DHT22;7115;50.150;8.568;2023-08-30T06:19:11;16.30;99.90
14079;DHT22;7115;50.150;8.568;2023-08-30T06:21:38;16.30;99.90
14079;DHT22;7115;50.150;8.568;2023-08-30T06:24:05;16.40;99.90
14079;DHT22;7115;50.150;8.568;2023-08-30T06:26:32;16.40;99.90
14079;DHT22;7115;50.150;8.568;2023-08-30T06:28:59;16.50;99.90
14079;DHT22;7115;50.150;8.568;2023-08-30T06:31:31;16.50;99.90
14079;DHT22;7115;50.150;8.568;2023-08-30T06:34:00;16.50;99.90
14079;DHT22;7115;50.150;8.568;2023-08-30T06:36:27;16.50;99.90
14079;DHT22;7115;50.150;8.568;2023-08-30T06:38:54;16.60;99.90
14079;DHT22;7115;50.150;8.568;2023-08-30T06:41:21;16.60;99.90
14079;DHT22;7115;50.150;8.568;2023-08-30T06:43:48;16.60;99.90
14079;DHT22;7115;50.150;8.568;2023-08-30T06:46:15;16.70;99.90
14079;DHT22;7115;50.150;8.568;2023-08-30T06:48:42;16.70;99.90
14079;DHT22;7115;50.150;8.568;2023-08-30T06:51:10;16.80;99.90
14079;DHT22;7115;50.150;8.568;2023-08-30T06:53:37;16.80;99.90
14079;DHT22;7115;50.150;8.568;2023-08-30T06:56:04;16.80;99.90
14079;DHT22;7115;50.150;8.568;2023-08-30T06:58:31;16.90;99.90
14079;DHT22;7115;50.150;8.568;2023-08-30T07:00:58;16.90;99.90
14079;DHT22;7115;50.150;8.568;2023-08-30T07:03:25;16.90;99.90
14079;DHT22;7115;50.150;8.568;2023-08-30T07:05:52;17.00;99.90
14079;DHT22;7115;50.150;8.568;2023-08-30T07:08:20;17.00;99.90
14079;DHT22;7115;50.150;8.568;2023-08-30T07:10:47;17.00;99.90
14079;DHT22;7115;50.150;8.568;2023-08-30T07:13:14;17.10;99.90
14079;DHT22;7115;50.150;8.568;2023-08-30T07:15:42;17.10;99.90
14079;DHT22;7115;50.150;8.568;2023-08-30T07:18:09;17.00;99.90
14079;DHT22;7115;50.150;8.568;2023-08-30T07:20:38;16.90;99.90
14079;DHT22;7115;50.150;8.568;2023-08-30T07:23:05;16.90;99.90
14079;DHT22;7115;50.150;8.568;2023-08-30T07:25:38;16.80;99.90
14079;DHT22;7115;50.150;8.568;2023-08-30T07:28:05;16.70;99.90
14079;DHT22;7115;50.150;8.568;2023-08-30T07:30:33;16.60;99.90
14079;DHT22;7115;50.150;8.568;2023-08-30T07:33:02;16.50;99.90
14079;DHT22;7115;50.150;8.568;2023-08-30T07:35:30;16.60;99.90
14079;DHT22;7115;50.150;8.568;2023-08-30T07:37:57;16.80;99.90
14079;DHT22;7115;50.150;8.568;2023-08-30T07:40:24;17.00;99.90
14079;DHT22;7115;50.150;8.568;2023-08-30T07:42:54;17.10;99.90
14079;DHT22;7115;50.150;8.568;2023-08-30T07:45:25;17.20;99.90
14079;DHT22;7115;50.150;8.568;2023-08-30T07:47:52;17.30;99.90
14079;DHT22;7115;50.150;8.568;2023-08-30T07:50:19;17.40;99.90
14079;DHT22;7115;50.150;8.568;2023-08-30T07:52:45;17.30;99.90
14079;DHT22;7115;50.150;8.568;2023-08-30T07:55:13;17.30;99.90
14079;DHT22;7115;50.150;8.568;2023-08-30T07:57:40;17.40;99.90
14079;DHT22;7115;50.150;8.568;2023-08-30T08:00:10;17.50;99.90
14079;DHT22;7115;50.150;8.568;2023-08-30T08:02:37;17.60;99.90
14079;DHT22;7115;50.150;8.568;2023-08-30T08:05:04;17.70;99.90
14079;DHT22;7115;50.150;8.568;2023-08-30T08:07:31;17.90;99.90
14079;DHT22;7115;50.150;8.568;2023-08-30T08:09:58;18.00;99.90
14079;DHT22;7115;50.150;8.568;2023-08-30T08:12:25;18.20;99.90
14079;DHT22;7115;50.150;8.568;2023-08-30T08:14:52;18.40;99.90
14079;DHT22;7115;50.150;8.568;2023-08-30T08:17:21;18.40;99.90
14079;DHT22;7115;50.150;8.568;2023-08-30T08:19:47;18.40;99.90
14079;DHT22;7115;50.150;8.568;2023-08-30T08:22:14;18.60;99.90
14079;DHT22;7115;50.150;8.568;2023-08-30T08:24:41;18.70;99.90
14079;DHT22;7115;50.150;8.568;2023-08-30T08:27:08;18.80;99.90
14079;DHT22;7115;50.150;8.568;2023-08-30T08:29:35;18.80;99.90
14079;DHT22;7115;50.150;8.568;2023-08-30T08:32:02;18.80;99.90
14079;DHT22;7115;50.150;8.568;2023-08-30T08:34:30;18.60;99.90
14079;DHT22;7115;50.150;8.568;2023-08-30T08:36:57;18.60;99.90
14079;DHT22;7115;50.150;8.568;2023-08-30T08:39:24;18.70;99.90
14079;DHT22;7115;50.150;8.568;2023-08-30T08:41:51;18.90;99.90
14079;DHT22;7115;50.150;8.568;2023-08-30T08:44:22;19.00;99.90
14079;DHT22;7115;50.150;8.568;2023-08-30T08:46:53;19.10;99.90
14079;DHT22;7115;50.150;8.568;2023-08-30T08:49:20;19.10;99.90
14079;DHT22;7115;50.150;8.568;2023-08-30T08:51:49;19.10;99.90
14079;DHT22;7115;50.150;8.568;2023-08-30T08:54:16;19.10;99.90
14079;DHT22;7115;50.150;8.568;2023-08-30T08:56:43;19.10;99.90
14079;DHT22;7115;50.150;8.568;2023-08-30T08:59:11;19.20;99.90
14079;DHT22;7115;50.150;8.568;2023-08-30T09:01:39;19.30;99.90
14079;DHT22;7115;50.150;8.568;2023-08-30T09:04:09;19.40;99.90
14079;DHT22;7115;50.150;8.568;2023-08-30T09:06:38;19.50;99.90
14079;DHT22;7115;50.150;8.568;2023-08-30T09:09:08;19.50;99.90
14079;DHT22;7115;50.150;8.568;2023-08-30T09:11:35;19.60;99.90
14079;DHT22;7115;50.150;8.568;2023-08-30T09:14:17;19.60;99.90
14079;DHT22;7115;50.150;8.568;2023-08-30T09:16:54;19.50;99.90
14079;DHT22;7115;50.150;8.568;2023-08-30T09:19:21;19.60;99.90
14079;DHT22;7115;50.150;8.568;2023-08-30T09:21:52;19.60;99.90
14079;DHT22;7115;50.150;8.568;2023-08-30T09:24:21;19.70;99.90
14079;DHT22;7115;50.150;8.568;2023-08-30T09:26:49;20.00;99.90
14079;DHT22;7115;50.150;8.568;2023-08-30T09:29:17;20.20;99.90
14079;DHT22;7115;50.150;8.568;2023-08-30T09:31:44;20.50;99.90
14079;DHT22;7115;50.150;8.568;2023-08-30T09:34:12;20.70;99.90
14079;DHT22;7115;50.150;8.568;2023-08-30T09:36:39;20.80;99.90
14079;DHT22;7115;50.150;8.568;2023-08-30T09:39:08;21.00;99.90
14079;DHT22;7115;50.150;8.568;2023-08-30T09:41:42;21.10;99.90
14079;DHT22;7115;50.150;8.568;2023-08-30T09:44:10;21.20;99.90
14079;DHT22;7115;50.150;8.568;2023-08-30T09:46:41;21.50;99.90
14079;DHT22;7115;50.150;8.568;2023-08-30T09:49:19;21.70;99.90
14079;DHT22;7115;50.150;8.568;2023-08-30T09:51:48;21.70;99.90
14079;DHT22;7115;50.150;8.568;2023-08-30T09:54:18;21.80;99.90
14079;DHT22;7115;50.150;8.568;2023-08-30T09:57:07;22.00;99.90
14079;DHT22;7115;50.150;8.568;2023-08-30T09:59:34;22.10;99.90
14079;DHT22;7115;50.150;8.568;2023-08-30T10:02:02;22.20;99.90
14079;DHT22;7115;50.150;8.568;2023-08-30T10:04:29;22.20;99.90
14079;DHT22;7115;50.150;8.568;2023-08-30T10:06:59;22.20;99.90
14079;DHT22;7115;50.150;8.568;2023-08-30T10:09:30;22.30;99.90
14079;DHT22;7115;50.150;8.568;2023-08-30T10:11:58;22.40;99.90
14079;DHT22;7115;50.150;8.568;2023-08-30T10:14:26;22.50;99.90
14079;DHT22;7115;50.150;8.568;2023-08-30T10:17:01;22.50;99.90
14079;DHT22;7115;50.150;8.568;2023-08-30T10:19:29;22.50;99.90
14079;DHT22;7115;50.150;8.568;2023-08-30T10:22:00;22.70;99.90
14079;DHT22;7115;50.150;8.568;2023-08-30T10:24:30;22.90;99.90
14079;DHT22;7115;50.150;8.568;2023-08-30T10:27:08;23.10;99.90
14079;DHT22;7115;50.150;8.568;2023-08-30T10:29:39;23.20;99.90
14079;DHT22;7115;50.150;8.568;2023-08-30T10:32:07;23.30;99.90
14079;DHT22;7115;50.150;8.568;2023-08-30T10:34:35;23.20;99.90
14079;DHT22;7115;50.150;8.568;2023-08-30T10:37:05;23.10;99.90
14079;DHT22;7115;50.150;8.568;2023-08-30T10:39:36;23.10;99.90
14079;DHT22;7115;50.150;8.568;2023-08-30T10:42:10;23.00;99.90
14079;DHT22;7115;50.150;8.568;2023-08-30T10:44:48;23.00;99.90
14079;DHT22;7115;50.150;8.568;2023-08-30T10:47:36;23.10;99.90
14079;DHT22;7115;50.150;8.568;2023-08-30T10:50:06;23.20;99.90
14079;DHT22;7115;50.150;8.568;2023-08-30T10:52:33;23.10;99.60
14079;DHT22;7115;50.150;8.568;2023-08-30T10:55:07;23.00;99.60
14079;DHT22;7115;50.150;8.568;2023-08-30T10:57:37;22.80;99.50
14079;DHT22;7115;50.150;8.568;2023-08-30T11:00:11;22.70;99.70
14079;DHT22;7115;50.150;8.568;2023-08-30T11:02:44;22.80;99.60
14079;DHT22;7115;50.150;8.568;2023-08-30T11:05:12;23.00;99.40
14079;DHT22;7115;50.150;8.568;2023-08-30T11:07:39;23.00;99.30
14079;DHT22;7115;50.150;8.568;2023-08-30T11:10:06;23.00;99.00
14079;DHT22;7115;50.150;8.568;2023-08-30T11:12:33;23.00;99.00
14079;DHT22;7115;50.150;8.568;2023-08-30T11:15:00;23.10;99.00
14079;DHT22;7115;50.150;8.568;2023-08-30T11:17:29;23.20;98.80
14079;DHT22;7115;50.150;8.568;2023-08-30T11:20:06;23.30;98.60
14079;DHT22;7115;50.150;8.568;2023-08-30T11:22:35;23.40;98.70
14079;DHT22;7115;50.150;8.568;2023-08-30T11:25:02;23.80;98.50
14079;DHT22;7115;50.150;8.568;2023-08-30T11:27:28;23.90;98.00
14079;DHT22;7115;50.150;8.568;2023-08-30T11:29:59;23.90;97.80
14079;DHT22;7115;50.150;8.568;2023-08-30T11:32:26;24.00;97.80
14079;DHT22;7115;50.150;8.568;2023-08-30T11:34:57;24.00;97.70
14079;DHT22;7115;50.150;8.568;2023-08-30T11:37:27;24.20;97.50
14079;DHT22;7115;50.150;8.568;2023-08-30T11:39:55;24.30;97.20
14079;DHT22;7115;50.150;8.568;2023-08-30T11:42:22;24.40;97.00
14079;DHT22;7115;50.150;8.568;2023-08-30T11:44:49;24.60;96.70
14079;DHT22;7115;50.150;8.568;2023-08-30T11:47:18;24.70;96.50
14079;DHT22;7115;50.150;8.568;2023-08-30T11:49:47;24.90;96.40
14079;DHT22;7115;50.150;8.568;2023-08-30T11:52:16;25.20;96.00
14079;DHT22;7115;50.150;8.568;2023-08-30T11:54:44;25.30;95.40
14079;DHT22;7115;50.150;8.568;2023-08-30T11:57:12;25.30;95.30
14079;DHT22;7115;50.150;8.568;2023-08-30T11:59:39;25.30;95.10
14079;DHT22;7115;50.150;8.568;2023-08-30T12:02:08;25.30;95.00
14079;DHT22;7115;50.150;8.568;2023-08-30T12:04:40;25.30;94.90
14079;DHT22;7115;50.150;8.568;2023-08-30T12:07:07;25.40;94.80
14079;DHT22;7115;50.150;8.568;2023-08-30T12:09:35;25.70;94.30
14079;DHT22;7115;50.150;8.568;2023-08-30T12:12:06;25.70;93.50
14079;DHT22;7115;50.150;8.568;2023-08-30T12:14:34;25.80;93.00
14079;DHT22;7115;50.150;8.568;2023-08-30T12:17:01;25.70;93.10
14079;DHT22;7115;50.150;8.568;2023-08-30T12:19:28;25.40;92.40
14079;DHT22;7115;50.150;8.568;2023-08-30T12:21:55;24.90;92.50
14079;DHT22;7115;50.150;8.568;2023-08-30T12:24:22;24.50;92.90
14079;DHT22;7115;50.150;8.568;2023-08-30T12:26:50;24.20;93.30
14079;DHT22;7115;50.150;8.568;2023-08-30T12:29:17;24.20;93.50
14079;DHT22;7115;50.150;8.568;2023-08-30T12:31:44;24.10;93.50
14079;DHT22;7115;50.150;8.568;2023-08-30T12:34:11;24.00;93.30
14079;DHT22;7115;50.150;8.568;2023-08-30T12:36:38;23.80;93.10
14079;DHT22;7115;50.150;8.568;2023-08-30T12:39:04;23.70;93.10
14079;DHT22;7115;50.150;8.568;2023-08-30T12:41:32;23.60;92.90
14079;DHT22;7115;50.150;8.568;2023-08-30T12:44:01;23.50;92.70
14079;DHT22;7115;50.150;8.568;2023-08-30T12:46:28;23.40;92.80
14079;DHT22;7115;50.150;8.568;2023-08-30T12:48:56;23.30;92.70
14079;DHT22;7115;50.150;8.568;2023-08-30T12:51:25;23.20;92.50
14079;DHT22;7115;50.150;8.568;2023-08-30T12:53:52;23.20;92.60
14079;DHT22;7115;50.150;8.568;2023-08-30T12:56:19;23.10;92.50
14079;DHT22;7115;50.150;8.568;2023-08-30T12:58:45;23.10;92.70
14079;DHT22;7115;50.150;8.568;2023-08-30T13:01:14;23.10;92.80
14079;DHT22;7115;50.150;8.568;2023-08-30T13:03:41;23.10;92.90
14079;DHT22;7115;50.150;8.568;2023-08-30T13:06:07;23.20;92.50
14079;DHT22;7115;50.150;8.568;2023-08-30T13:08:34;23.20;92.20
14079;DHT22;7115;50.150;8.568;2023-08-30T13:11:01;23.30;92.10
14079;DHT22;7115;50.150;8.568;2023-08-30T13:13:28;23.40;92.00
14079;DHT22;7115;50.150;8.568;2023-08-30T13:15:55;23.40;91.70
14079;DHT22;7115;50.150;8.568;2023-08-30T13:18:23;23.30;91.30
14079;DHT22;7115;50.150;8.568;2023-08-30T13:20:50;23.10;91.40
14079;DHT22;7115;50.150;8.568;2023-08-30T13:23:20;23.00;91.70
14079;DHT22;7115;50.150;8.568;2023-08-30T13:25:47;23.00;91.80
14079;DHT22;7115;50.150;8.568;2023-08-30T13:28:15;23.00;91.70
14079;DHT22;7115;50.150;8.568;2023-08-30T13:30:44;23.00;91.70
14079;DHT22;7115;50.150;8.568;2023-08-30T13:33:11;23.10;91.90
14079;DHT22;7115;50.150;8.568;2023-08-30T13:35:40;23.10;91.80
14079;DHT22;7115;50.150;8.568;2023-08-30T13:38:07;23.20;91.70
14079;DHT22;7115;50.150;8.568;2023-08-30T13:40:34;23.20;91.70
14079;DHT22;7115;50.150;8.568;2023-08-30T13:43:00;23.20;91.60
14079;DHT22;7115;50.150;8.568;2023-08-30T13:45:27;23.20;91.90
14079;DHT22;7115;50.150;8.568;2023-08-30T13:47:54;23.20;91.60
14079;DHT22;7115;50.150;8.568;2023-08-30T13:50:22;23.20;91.60
14079;DHT22;7115;50.150;8.568;2023-08-30T13:52:50;23.20;91.70
14079;DHT22;7115;50.150;8.568;2023-08-30T13:55:17;23.10;91.60
14079;DHT22;7115;50.150;8.568;2023-08-30T13:57:44;23.10;91.70
14079;DHT22;7115;50.150;8.568;2023-08-30T14:00:12;23.10;91.70
14079;DHT22;7115;50.150;8.568;2023-08-30T14:02:39;23.10;91.70
14079;DHT22;7115;50.150;8.568;2023-08-30T14:05:07;23.00;91.80
14079;DHT22;7115;50.150;8.568;2023-08-30T14:07:34;23.00;91.70
14079;DHT22;7115;50.150;8.568;2023-08-30T14:10:03;22.90;91.60
14079;DHT22;7115;50.150;8.568;2023-08-30T14:12:30;22.90;91.50
14079;DHT22;7115;50.150;8.568;2023-08-30T14:14:57;22.80;91.70
14079;DHT22;7115;50.150;8.568;2023-08-30T14:17:24;22.70;91.60
14079;DHT22;7115;50.150;8.568;2023-08-30T14:19:51;22.70;91.70
14079;DHT22;7115;50.150;8.568;2023-08-30T14:22:18;22.60;91.50
14079;DHT22;7115;50.150;8.568;2023-08-30T14:24:46;22.50;91.50
14079;DHT22;7115;50.150;8.568;2023-08-30T14:27:34;22.40;91.70
14079;DHT22;7115;50.150;8.568;2023-08-30T14:30:01;22.40;91.80
14079;DHT22;7115;50.150;8.568;2023-08-30T14:32:28;22.40;91.90
14079;DHT22;7115;50.150;8.568;2023-08-30T14:34:55;22.50;92.00
14079;DHT22;7115;50.150;8.568;2023-08-30T14:37:21;22.50;92.10
14079;DHT22;7115;50.150;8.568;2023-08-30T14:39:48;22.50;92.20
14079;DHT22;7115;50.150;8.568;2023-08-30T14:42:15;22.60;92.60
14079;DHT22;7115;50.150;8.568;2023-08-30T14:44:43;22.60;92.30
14079;DHT22;7115;50.150;8.568;2023-08-30T14:47:10;22.70;92.30
14079;DHT22;7115;50.150;8.568;2023-08-30T14:49:37;22.80;92.40
14079;DHT22;7115;50.150;8.568;2023-08-30T14:52:04;22.90;92.40
14079;DHT22;7115;50.150;8.568;2023-08-30T14:54:31;22.90;92.20
14079;DHT22;7115;50.150;8.568;2023-08-30T14:56:58;22.90;92.20
14079;DHT22;7115;50.150;8.568;2023-08-30T14:59:25;22.80;92.20
14079;DHT22;7115;50.150;8.568;2023-08-30T15:01:53;22.80;92.40
14079;DHT22;7115;50.150;8.568;2023-08-30T15:04:20;22.80;92.50
14079;DHT22;7115;50.150;8.568;2023-08-30T15:06:49;22.70;92.60
14079;DHT22;7115;50.150;8.568;2023-08-30T15:09:16;22.70;92.60
14079;DHT22;7115;50.150;8.568;2023-08-30T15:11:43;22.70;92.70
14079;DHT22;7115;50.150;8.568;2023-08-30T15:14:10;22.60;92.60
14079;DHT22;7115;50.150;8.568;2023-08-30T15:16:37;22.50;92.70
14079;DHT22;7115;50.150;8.568;2023-08-30T15:19:05;22.40;92.80
14079;DHT22;7115;50.150;8.568;2023-08-30T15:21:32;22.30;92.90
14079;DHT22;7115;50.150;8.568;2023-08-30T15:23:59;22.30;92.90
14079;DHT22;7115;50.150;8.568;2023-08-30T15:26:26;22.20;93.00
14079;DHT22;7115;50.150;8.568;2023-08-30T15:28:53;22.20;93.00
14079;DHT22;7115;50.150;8.568;2023-08-30T15:31:20;22.20;93.00
14079;DHT22;7115;50.150;8.568;2023-08-30T15:33:46;22.20;93.10
14079;DHT22;7115;50.150;8.568;2023-08-30T15:36:15;22.20;93.20
14079;DHT22;7115;50.150;8.568;2023-08-30T15:38:42;22.10;93.20
14079;DHT22;7115;50.150;8.568;2023-08-30T15:41:12;22.10;93.30
14079;DHT22;7115;50.150;8.568;2023-08-30T15:43:39;22.10;93.30
14079;DHT22;7115;50.150;8.568;2023-08-30T15:46:06;22.00;93.40
14079;DHT22;7115;50.150;8.568;2023-08-30T15:48:34;22.10;93.50
14079;DHT22;7115;50.150;8.568;2023-08-30T15:51:01;22.10;94.00